createdAt,value
2019-03-31T00:04:13.922Z,49.50
2019-03-31T00:09:18.248Z,49.60
2019-03-31T00:14:22.490Z,49.50
2019-03-31T00:19:26.728Z,49.30
2019-03-31T00:24:31.027Z,49.20
2019-03-31T00:29:35.545Z,49.30
2019-03-31T00:34:39.757Z,49.30
2019-03-31T00:39:44.048Z,49.30
2019-03-31T00:44:48.259Z,49.10
2019-03-31T00:49:52.478Z,49.10
2019-03-31T00:54:57.019Z,48.90
2019-03-31T01:00:01.292Z,49.00
2019-03-31T01:05:05.900Z,48.90
2019-03-31T01:10:18.079Z,49.10
2019-03-31T01:15:34.355Z,48.90
2019-03-31T01:20:39.647Z,48.90
2019-03-31T01:25:44.005Z,48.90
2019-03-31T01:30:48.984Z,48.70
2019-03-31T01:35:53.246Z,48.80
2019-03-31T01:40:57.834Z,48.70
2019-03-31T01:46:02.282Z,48.80
2019-03-31T01:51:06.497Z,48.70
2019-03-31T01:56:10.819Z,48.70
2019-03-31T02:01:16.139Z,48.50
2019-03-31T02:06:21.074Z,48.50
2019-03-31T02:11:25.360Z,48.50
2019-03-31T02:16:29.634Z,48.30
2019-03-31T02:21:33.956Z,48.40
2019-03-31T02:26:38.220Z,48.40
2019-03-31T02:31:42.505Z,48.30
2019-03-31T02:36:46.782Z,48.20
2019-03-31T02:41:51.048Z,48.40
2019-03-31T02:46:55.305Z,48.20
2019-03-31T02:51:59.560Z,48.30
2019-03-31T02:57:06.886Z,48.20
2019-03-31T03:02:11.772Z,48.10
2019-03-31T03:07:15.957Z,48.10
2019-03-31T03:12:20.317Z,48.20
2019-03-31T03:17:24.560Z,48.10
2019-03-31T03:22:28.829Z,48.00
2019-03-31T03:27:33.176Z,48.10
2019-03-31T03:32:37.489Z,47.90
2019-03-31T03:37:41.803Z,47.90
2019-03-31T03:42:46.114Z,48.20
2019-03-31T03:47:50.360Z,47.90
2019-03-31T03:52:54.886Z,47.90
2019-03-31T03:57:59.124Z,47.80
2019-03-31T04:03:03.328Z,47.90
2019-03-31T04:08:07.582Z,47.80
2019-03-31T04:13:11.822Z,47.80
2019-03-31T04:18:16.059Z,47.70
2019-03-31T04:23:20.310Z,48.00
2019-03-31T04:28:24.592Z,47.80
2019-03-31T04:33:48.564Z,47.80
2019-03-31T04:38:34.874Z,47.70
2019-03-31T04:43:39.135Z,47.70
2019-03-31T04:48:43.352Z,47.70
2019-03-31T04:54:06.560Z,47.70
2019-03-31T04:59:10.744Z,47.60
2019-03-31T05:04:14.908Z,47.60
2019-03-31T05:09:19.183Z,47.60
2019-03-31T05:14:23.485Z,48.10
2019-03-31T05:19:27.709Z,47.60
2019-03-31T05:24:32.009Z,47.60
2019-03-31T05:29:36.365Z,47.60
2019-03-31T05:34:59.688Z,48.20
2019-03-31T05:40:04.109Z,47.50
2019-03-31T05:45:08.500Z,47.50
2019-03-31T05:50:12.726Z,47.60
2019-03-31T05:55:18.898Z,47.60
2019-03-31T06:00:49.024Z,47.60
2019-03-31T06:05:53.326Z,47.50
2019-03-31T06:10:57.823Z,47.50
2019-03-31T06:16:02.207Z,47.70
2019-03-31T06:21:06.497Z,47.50
2019-03-31T06:26:11.010Z,47.50
2019-03-31T06:31:15.267Z,47.40
2019-03-31T06:36:19.736Z,47.60
2019-03-31T06:41:24.048Z,47.50
2019-03-31T06:46:28.306Z,47.50
2019-03-31T06:51:32.818Z,47.50
2019-03-31T06:56:37.203Z,48.20
2019-03-31T07:01:41.464Z,47.60
2019-03-31T07:06:45.789Z,47.70
2019-03-31T07:11:50.021Z,47.70
2019-03-31T07:16:54.238Z,47.70
2019-03-31T07:21:58.489Z,47.60
2019-03-31T07:27:02.813Z,47.70
2019-03-31T07:32:07.292Z,47.70
2019-03-31T07:37:11.555Z,48.20
2019-03-31T07:42:16.174Z,48.70
2019-03-31T07:47:20.418Z,49.00
2019-03-31T07:52:24.654Z,49.30
2019-03-31T07:57:28.852Z,49.20
2019-03-31T08:02:33.197Z,49.20
2019-03-31T08:07:37.746Z,49.20
2019-03-31T08:12:41.975Z,49.20
2019-03-31T08:17:46.245Z,49.20
2019-03-31T08:22:50.611Z,49.10
2019-03-31T08:27:55.085Z,49.00
2019-03-31T08:32:59.337Z,48.90
2019-03-31T08:38:03.702Z,48.80
2019-03-31T08:43:07.991Z,48.90
2019-03-31T08:48:12.300Z,48.80
2019-03-31T08:53:16.617Z,48.80
2019-03-31T08:58:20.998Z,48.60
2019-03-31T09:03:25.557Z,48.60
2019-03-31T09:08:29.894Z,48.60
2019-03-31T09:13:34.192Z,48.50
2019-03-31T09:18:38.541Z,48.40
2019-03-31T09:23:42.828Z,48.30
2019-03-31T09:28:49.498Z,48.20
2019-03-31T09:33:53.800Z,48.20
2019-03-31T09:38:58.212Z,48.20
2019-03-31T09:44:02.511Z,48.20
2019-03-31T09:49:06.906Z,48.20
2019-03-31T09:54:11.608Z,48.40
2019-03-31T09:59:15.952Z,48.20
2019-03-31T10:04:27.426Z,48.20
2019-03-31T10:09:33.099Z,48.10
2019-03-31T10:14:40.387Z,48.10
2019-03-31T10:19:48.405Z,48.20
2019-03-31T10:24:52.900Z,48.10
2019-03-31T10:29:57.208Z,48.20
2019-03-31T10:35:01.522Z,48.20
2019-03-31T10:40:07.415Z,48.00
2019-03-31T10:45:12.301Z,48.00
2019-03-31T10:50:16.601Z,48.00
2019-03-31T10:55:21.222Z,48.10
2019-03-31T11:00:32.916Z,48.00
2019-03-31T11:05:37.466Z,48.10
2019-03-31T11:10:41.726Z,48.00
2019-03-31T11:15:46.231Z,48.00
2019-03-31T11:20:50.524Z,48.00
2019-03-31T11:25:54.804Z,48.00
2019-03-31T11:30:59.033Z,47.90
2019-03-31T11:36:03.309Z,47.80
2019-03-31T11:41:09.017Z,47.80
2019-03-31T11:46:15.406Z,47.80
2019-03-31T11:51:19.741Z,50.00
2019-03-31T11:56:24.424Z,48.70
2019-03-31T12:01:28.882Z,48.00
2019-03-31T12:06:33.071Z,48.00
2019-03-31T12:11:39.334Z,47.80
2019-03-31T12:16:43.627Z,47.60
2019-03-31T12:21:47.862Z,48.10
2019-03-31T12:26:52.088Z,48.10
2019-03-31T12:31:56.629Z,48.10
2019-03-31T12:37:00.927Z,47.90
2019-03-31T12:42:05.166Z,47.90
2019-03-31T12:47:09.437Z,48.00
2019-03-31T12:52:13.643Z,48.00
2019-03-31T12:57:17.930Z,48.10
2019-03-31T13:02:22.948Z,48.10
2019-03-31T13:07:27.392Z,48.10
2019-03-31T13:12:34.830Z,48.10
2019-03-31T13:17:37.685Z,50.40
2019-03-31T13:22:41.914Z,53.50
2019-03-31T13:27:46.383Z,59.20
2019-03-31T13:32:50.644Z,56.00
2019-03-31T13:37:54.965Z,58.10
2019-03-31T13:42:59.305Z,58.40
2019-03-31T13:48:04.607Z,55.00
2019-03-31T13:53:09.331Z,53.00
2019-03-31T13:58:14.256Z,50.90
2019-03-31T14:03:19.681Z,49.60
2019-03-31T14:08:25.954Z,50.40
2019-03-31T14:13:30.199Z,49.60
2019-03-31T14:18:34.518Z,51.10
2019-03-31T14:23:39.858Z,49.40
2019-03-31T14:28:44.312Z,51.40
2019-03-31T14:33:48.577Z,50.20
2019-03-31T14:38:53.029Z,50.80
2019-03-31T14:43:57.396Z,50.20
2019-03-31T14:49:01.718Z,51.50
2019-03-31T14:54:06.099Z,50.30
2019-03-31T14:59:10.410Z,49.90
2019-03-31T15:04:14.650Z,49.60
2019-03-31T15:09:19.005Z,49.30
2019-03-31T15:14:23.370Z,49.20
2019-03-31T15:19:30.420Z,49.10
2019-03-31T15:24:35.801Z,48.80
2019-03-31T15:29:41.862Z,48.70
2019-03-31T15:34:46.215Z,48.40
2019-03-31T15:39:50.463Z,48.40
2019-03-31T15:44:54.740Z,48.40
2019-03-31T15:50:01.264Z,48.30
2019-03-31T15:55:06.250Z,48.10
2019-03-31T16:00:11.152Z,48.10
2019-03-31T16:05:15.572Z,47.90
2019-03-31T16:10:19.563Z,48.00
2019-03-31T16:15:23.812Z,47.80
2019-03-31T16:20:27.678Z,48.10
2019-03-31T16:25:37.639Z,47.90
2019-03-31T16:30:41.618Z,47.80
2019-03-31T16:35:46.274Z,48.50
2019-03-31T16:40:50.490Z,48.10
2019-03-31T16:45:54.726Z,48.00
2019-03-31T16:51:01.013Z,48.10
2019-03-31T16:56:05.374Z,48.40
2019-03-31T17:01:09.335Z,48.30
2019-03-31T17:06:32.412Z,48.00
2019-03-31T17:11:36.223Z,47.80
2019-03-31T17:16:39.886Z,47.70
2019-03-31T17:21:43.532Z,47.60
2019-03-31T17:26:47.374Z,47.30
2019-03-31T17:31:51.603Z,47.30
2019-03-31T17:36:55.842Z,47.30
2019-03-31T17:42:00.129Z,47.10
2019-03-31T17:47:05.291Z,47.20
2019-03-31T17:52:09.279Z,47.00
2019-03-31T17:57:13.595Z,47.10
2019-03-31T18:02:17.533Z,46.90
2019-03-31T18:07:23.531Z,46.90
2019-03-31T18:12:29.702Z,46.80
2019-03-31T18:17:34.699Z,46.80
2019-03-31T18:22:38.642Z,47.70
2019-03-31T18:27:42.637Z,47.60
2019-03-31T18:32:46.414Z,47.60
2019-03-31T18:37:50.129Z,48.00
2019-03-31T18:42:54.355Z,48.10
2019-03-31T18:48:00.996Z,48.20
2019-03-31T18:53:04.777Z,48.40
2019-03-31T18:58:17.799Z,48.40
2019-03-31T19:03:40.811Z,48.40
2019-03-31T19:08:59.952Z,49.00
2019-03-31T19:14:11.376Z,48.40
2019-03-31T19:19:52.855Z,51.20
2019-03-31T19:25:14.522Z,53.10
2019-03-31T19:30:47.195Z,53.10
2019-03-31T19:36:09.705Z,52.20
2019-03-31T19:41:35.919Z,51.90
2019-03-31T19:46:56.464Z,51.50
2019-03-31T19:52:18.539Z,51.00
2019-03-31T19:57:42.356Z,50.50
2019-03-31T20:03:10.301Z,50.30
2019-03-31T20:08:32.480Z,50.20
2019-03-31T20:13:54.728Z,54.60
2019-03-31T20:19:13.184Z,54.90
2019-03-31T20:24:36.299Z,54.10
2019-03-31T20:29:54.542Z,54.40
2019-03-31T20:35:17.282Z,52.20
2019-03-31T20:40:39.590Z,53.00
2019-03-31T20:45:44.649Z,52.30
2019-03-31T20:50:48.481Z,52.30
2019-03-31T20:55:52.337Z,52.00
2019-03-31T21:00:56.312Z,51.10
2019-03-31T21:06:00.135Z,51.40
2019-03-31T21:11:04.049Z,51.70
2019-03-31T21:16:08.444Z,52.20
2019-03-31T21:21:12.266Z,50.80
2019-03-31T21:26:16.092Z,50.90
2019-03-31T21:31:20.089Z,50.60
2019-03-31T21:36:23.953Z,50.20
2019-03-31T21:41:27.593Z,49.80
2019-03-31T21:46:33.181Z,49.30
2019-03-31T21:51:36.890Z,49.30
2019-03-31T21:56:41.149Z,48.90
2019-03-31T22:01:44.885Z,48.90
2019-03-31T22:06:48.599Z,48.80
2019-03-31T22:11:52.448Z,48.50
2019-03-31T22:16:56.114Z,48.80
2019-03-31T22:21:59.763Z,48.50
2019-03-31T22:27:03.645Z,48.40
2019-03-31T22:32:07.511Z,48.50
2019-03-31T22:37:11.473Z,48.20
2019-03-31T22:42:15.137Z,48.20
2019-03-31T22:47:18.889Z,48.00
2019-03-31T22:52:22.630Z,47.90
2019-03-31T22:57:26.373Z,48.20
2019-03-31T23:02:30.069Z,48.20
2019-03-31T23:07:33.729Z,47.80
2019-03-31T23:12:37.363Z,47.70
2019-03-31T23:17:41.097Z,47.70
2019-03-31T23:22:44.741Z,47.70
2019-03-31T23:27:48.469Z,48.10
2019-03-31T23:32:52.211Z,48.50
2019-03-31T23:37:55.880Z,48.70
2019-03-31T23:42:59.935Z,48.60
2019-03-31T23:48:03.615Z,48.70
2019-03-31T23:53:07.375Z,48.80
2019-03-31T23:58:11.018Z,48.80
